createdAt,value
2022-12-12T00:02:24.088Z,12.87
2022-12-12T00:07:27.044Z,13.47
2022-12-12T00:12:31.304Z,11.97
2022-12-12T00:17:34.372Z,11.53
2022-12-12T00:22:37.343Z,13.00
2022-12-12T00:27:41.674Z,12.90
2022-12-12T00:32:44.621Z,12.70
2022-12-12T00:37:47.835Z,13.13
2022-12-12T00:42:52.114Z,13.50
2022-12-12T00:47:55.951Z,13.57
2022-12-12T00:52:59.424Z,13.40
2022-12-12T00:58:03.714Z,13.40
2022-12-12T01:03:06.695Z,14.13
2022-12-12T01:08:09.673Z,12.97
2022-12-12T01:13:13.928Z,12.13
2022-12-12T01:18:16.939Z,13.67
2022-12-12T01:23:19.893Z,14.60
2022-12-12T01:28:24.151Z,13.07
2022-12-12T01:33:27.585Z,13.20
2022-12-12T01:38:30.526Z,13.50
2022-12-12T01:43:35.235Z,13.80
2022-12-12T01:48:43.035Z,13.60
2022-12-12T01:53:47.169Z,13.20
2022-12-12T01:58:54.216Z,13.27
2022-12-12T02:03:58.236Z,13.10
2022-12-12T02:09:05.035Z,13.63
2022-12-12T02:14:09.409Z,12.70
2022-12-12T02:19:53.361Z,12.37
2022-12-12T02:25:17.345Z,13.73
2022-12-12T02:30:28.023Z,13.60
2022-12-12T02:35:42.844Z,13.83
2022-12-12T02:40:52.922Z,12.57
2022-12-12T02:45:59.989Z,12.70
2022-12-12T02:51:07.733Z,14.67
2022-12-12T02:56:50.591Z,16.33
2022-12-12T03:02:22.422Z,14.30
2022-12-12T03:07:50.078Z,15.30
2022-12-12T03:13:00.833Z,14.10
2022-12-12T03:18:17.613Z,14.87
2022-12-12T03:23:28.434Z,14.43
2022-12-12T03:28:35.923Z,15.30
2022-12-12T03:33:43.296Z,15.30
2022-12-12T03:38:57.033Z,14.23
2022-12-12T03:44:06.825Z,15.97
2022-12-12T03:49:14.185Z,13.43
2022-12-12T03:54:23.695Z,14.17
2022-12-12T03:59:34.000Z,15.30
2022-12-12T04:04:42.875Z,14.70
2022-12-12T04:10:04.710Z,12.90
2022-12-12T04:15:32.302Z,13.93
2022-12-12T04:21:01.573Z,13.40
2022-12-12T04:26:30.728Z,13.73
2022-12-12T04:31:37.718Z,14.33
2022-12-12T04:36:42.435Z,12.90
2022-12-12T04:41:49.669Z,13.00
2022-12-12T04:46:56.208Z,12.70
2022-12-12T04:52:03.662Z,12.27
2022-12-12T04:57:11.449Z,12.13
2022-12-12T05:02:25.636Z,12.30
2022-12-12T05:07:39.750Z,12.03
2022-12-12T05:12:49.269Z,12.80
2022-12-12T05:17:58.123Z,12.40
2022-12-12T05:23:01.104Z,12.33
2022-12-12T05:28:05.798Z,12.00
2022-12-12T05:33:08.747Z,13.20
2022-12-12T05:38:11.695Z,12.83
2022-12-12T05:43:16.012Z,12.90
2022-12-12T05:48:24.102Z,11.73
2022-12-12T05:53:27.567Z,12.10
2022-12-12T05:58:31.858Z,12.80
2022-12-12T06:03:35.477Z,12.60
2022-12-12T06:08:38.567Z,12.80
2022-12-12T06:13:42.891Z,13.17
2022-12-12T06:18:46.347Z,12.83
2022-12-12T06:23:49.830Z,12.60
2022-12-12T06:28:54.164Z,12.50
2022-12-12T06:33:57.113Z,13.77
2022-12-12T06:39:02.096Z,12.93
2022-12-12T06:44:07.214Z,13.00
2022-12-12T06:49:10.611Z,13.53
2022-12-12T06:54:14.335Z,13.37
2022-12-12T06:59:18.715Z,13.13
2022-12-12T07:04:21.575Z,11.93
2022-12-12T07:09:24.556Z,12.47
2022-12-12T07:14:28.810Z,13.77
2022-12-12T07:19:31.713Z,12.03
2022-12-12T07:24:34.661Z,12.07
2022-12-12T07:29:38.956Z,12.50
2022-12-12T07:34:41.880Z,12.87
2022-12-12T07:39:44.806Z,10.83
2022-12-12T07:44:49.065Z,11.57
2022-12-12T07:49:52.015Z,11.60
2022-12-12T07:54:55.034Z,11.10
2022-12-12T07:59:59.357Z,10.60
2022-12-12T08:05:02.378Z,11.20
2022-12-12T08:10:06.225Z,10.70
2022-12-12T08:15:16.256Z,10.23
2022-12-12T08:20:19.219Z,10.63
2022-12-12T08:25:22.162Z,10.07
2022-12-12T08:30:26.512Z,10.53
2022-12-12T08:35:30.607Z,11.50
2022-12-12T08:40:35.926Z,10.90
2022-12-12T08:45:40.590Z,10.37
2022-12-12T08:50:43.723Z,10.17
2022-12-12T08:55:46.849Z,11.60
2022-12-12T09:00:51.258Z,10.87
2022-12-12T09:05:54.159Z,10.87
2022-12-12T09:10:57.048Z,11.37
2022-12-12T09:16:01.427Z,10.50
2022-12-12T09:21:04.882Z,11.23
2022-12-12T09:26:09.214Z,11.23
2022-12-12T09:31:14.521Z,9.87
2022-12-12T09:36:17.870Z,10.50
2022-12-12T09:41:22.628Z,11.00
2022-12-12T09:46:34.453Z,10.60
2022-12-12T09:51:37.815Z,10.20
2022-12-12T09:56:48.841Z,10.80
2022-12-12T10:02:05.204Z,10.13
2022-12-12T10:07:17.782Z,10.13
2022-12-12T10:12:23.014Z,11.00
2022-12-12T10:17:31.454Z,11.33
2022-12-12T10:22:41.375Z,11.63
2022-12-12T10:27:44.711Z,12.03
2022-12-12T10:33:10.445Z,10.87
2022-12-12T10:38:32.522Z,10.87
2022-12-12T10:43:45.546Z,9.30
2022-12-12T10:48:50.364Z,11.00
2022-12-12T10:53:53.680Z,9.70
2022-12-12T10:58:58.628Z,10.60
2022-12-12T11:04:03.538Z,10.23
2022-12-12T11:09:10.069Z,9.97
2022-12-12T11:14:28.074Z,11.23
2022-12-12T11:19:39.963Z,11.17
2022-12-12T11:24:46.487Z,11.00
2022-12-12T11:29:52.603Z,9.67
2022-12-12T11:34:59.315Z,12.10
2022-12-12T11:40:02.526Z,11.80
2022-12-12T11:45:20.891Z,10.63
2022-12-12T11:50:27.124Z,10.50
2022-12-12T11:55:40.505Z,11.83
2022-12-12T12:00:50.709Z,11.80
2022-12-12T12:06:09.751Z,10.53
2022-12-12T12:11:22.781Z,11.17
2022-12-12T12:16:36.682Z,10.90
2022-12-12T12:21:49.107Z,11.70
2022-12-12T12:27:02.055Z,11.07
2022-12-12T12:32:13.974Z,12.67
2022-12-12T12:37:32.986Z,10.73
2022-12-12T12:42:51.671Z,11.27
2022-12-12T12:47:59.976Z,9.73
2022-12-12T12:53:08.343Z,9.87
2022-12-12T12:58:19.707Z,10.60
2022-12-12T13:03:28.566Z,10.20
2022-12-12T13:08:40.795Z,10.37
2022-12-12T13:13:48.942Z,10.77
2022-12-12T13:19:03.593Z,11.23
2022-12-12T13:24:15.119Z,11.90
2022-12-12T13:29:33.741Z,11.47
2022-12-12T13:34:42.194Z,10.13
2022-12-12T13:39:47.739Z,10.80
2022-12-12T13:44:51.054Z,11.63
2022-12-12T13:49:55.496Z,10.80
2022-12-12T13:55:22.415Z,11.20
2022-12-12T14:00:27.111Z,11.23
2022-12-12T14:05:32.628Z,11.93
2022-12-12T14:10:40.870Z,11.30
2022-12-12T14:15:45.527Z,11.37
2022-12-12T14:20:59.726Z,10.20
2022-12-12T14:26:42.405Z,9.70
2022-12-12T14:31:54.135Z,9.60
2022-12-12T14:37:29.793Z,10.30
2022-12-12T14:43:15.319Z,9.90
2022-12-12T14:48:20.212Z,10.57
2022-12-12T14:53:25.806Z,10.67
2022-12-12T14:58:32.275Z,9.43
2022-12-12T15:03:40.325Z,9.13
2022-12-12T15:08:43.714Z,8.73
2022-12-12T15:13:56.456Z,11.17
2022-12-12T15:19:01.017Z,10.57
2022-12-12T15:24:04.139Z,11.07
2022-12-12T15:29:09.619Z,10.63
2022-12-12T15:34:31.531Z,11.40
2022-12-12T15:39:34.693Z,11.80
2022-12-12T15:44:39.511Z,13.67
2022-12-12T15:49:44.839Z,13.00
2022-12-12T15:54:51.059Z,13.53
2022-12-12T15:59:58.260Z,13.33
2022-12-12T16:05:05.832Z,12.37
2022-12-12T16:10:29.918Z,13.17
2022-12-12T16:15:36.850Z,13.33
2022-12-12T16:20:46.314Z,14.27
2022-12-12T16:25:49.498Z,13.53
2022-12-12T16:30:57.232Z,14.13
2022-12-12T16:36:01.669Z,13.33
2022-12-12T16:41:10.228Z,14.30
2022-12-12T16:46:20.079Z,14.63
2022-12-12T16:51:28.935Z,13.40
2022-12-12T16:56:32.059Z,17.10
2022-12-12T17:01:38.923Z,13.63
2022-12-12T17:06:42.009Z,15.77
2022-12-12T17:11:45.622Z,16.23
2022-12-12T17:16:50.078Z,14.23
2022-12-12T17:21:53.008Z,14.90
2022-12-12T17:26:55.970Z,15.40
2022-12-12T17:32:00.292Z,15.53
2022-12-12T17:37:03.304Z,15.17
2022-12-12T17:42:06.430Z,18.20
2022-12-12T17:47:10.697Z,15.47
2022-12-12T17:52:13.822Z,15.33
2022-12-12T17:57:16.773Z,14.80
2022-12-12T18:02:21.458Z,16.10
2022-12-12T18:07:24.454Z,15.90
2022-12-12T18:12:27.418Z,17.20
2022-12-12T18:17:31.736Z,13.80
2022-12-12T18:22:36.488Z,14.23
2022-12-12T18:27:40.337Z,14.30
2022-12-12T18:32:46.271Z,17.63
2022-12-12T18:37:49.352Z,14.60
2022-12-12T18:42:52.329Z,16.73
2022-12-12T18:47:56.692Z,17.47
2022-12-12T18:52:59.634Z,21.90
2022-12-12T18:58:03.979Z,22.90
2022-12-12T19:03:08.271Z,20.47
2022-12-12T19:08:12.276Z,18.93
2022-12-12T19:13:15.191Z,18.03
2022-12-12T19:18:19.642Z,18.30
2022-12-12T19:23:22.588Z,19.50
2022-12-12T19:28:25.508Z,19.70
2022-12-12T19:33:29.882Z,18.30
2022-12-12T19:38:32.822Z,16.73
2022-12-12T19:43:36.124Z,16.20
2022-12-12T19:48:41.053Z,17.83
2022-12-12T19:53:46.144Z,15.87
2022-12-12T19:58:50.240Z,16.90
2022-12-12T20:03:56.275Z,15.77
2022-12-12T20:09:00.101Z,16.00
2022-12-12T20:14:03.328Z,13.87
2022-12-12T20:19:07.729Z,14.03
2022-12-12T20:24:10.959Z,13.07
2022-12-12T20:29:15.252Z,14.40
2022-12-12T20:34:24.885Z,13.03
2022-12-12T20:39:28.162Z,13.40
2022-12-12T20:44:31.094Z,14.20
2022-12-12T20:49:35.405Z,12.70
2022-12-12T20:54:38.343Z,13.90
2022-12-12T20:59:41.260Z,14.50
2022-12-12T21:04:45.686Z,12.70
2022-12-12T21:09:48.595Z,12.77
2022-12-12T21:14:51.495Z,12.40
2022-12-12T21:19:55.805Z,13.13
2022-12-12T21:24:58.704Z,12.47
2022-12-12T21:30:01.611Z,11.53
2022-12-12T21:35:06.634Z,16.80
2022-12-12T21:40:11.054Z,14.20
2022-12-12T21:45:16.454Z,12.60
2022-12-12T21:50:22.772Z,12.00
2022-12-12T21:55:27.683Z,17.97
2022-12-12T22:00:30.695Z,15.80
2022-12-12T22:05:34.955Z,12.73
2022-12-12T22:10:38.323Z,11.53
2022-12-12T22:15:41.274Z,12.10
2022-12-12T22:20:46.268Z,12.57
2022-12-12T22:25:49.242Z,12.40
2022-12-12T22:30:52.207Z,11.90
2022-12-12T22:35:59.526Z,12.60
2022-12-12T22:41:02.512Z,10.77
2022-12-12T22:46:07.574Z,11.43
2022-12-12T22:51:16.870Z,10.07
2022-12-12T22:56:19.930Z,10.77
2022-12-12T23:01:25.339Z,11.50
2022-12-12T23:06:31.242Z,11.77
2022-12-12T23:11:35.720Z,11.97
2022-12-12T23:16:38.727Z,10.90
2022-12-12T23:21:43.446Z,10.57
2022-12-12T23:26:47.261Z,11.47
2022-12-12T23:31:50.447Z,10.33
2022-12-12T23:36:56.715Z,11.13
2022-12-12T23:41:59.584Z,10.57
2022-12-12T23:47:03.835Z,9.77
2022-12-12T23:52:08.128Z,10.10
2022-12-12T23:57:12.156Z,10.57
